createdAt,value
2017-10-07T00:02:07.789Z,3.67
2017-10-07T00:04:35.248Z,4.50
2017-10-07T00:07:02.730Z,3.97
2017-10-07T00:09:30.183Z,3.93
2017-10-07T00:11:57.652Z,4.40
2017-10-07T00:14:25.118Z,4.03
2017-10-07T00:16:53.412Z,4.60
2017-10-07T00:19:20.904Z,5.00
2017-10-07T00:21:48.375Z,4.00
2017-10-07T00:24:15.842Z,5.00
2017-10-07T00:26:43.299Z,4.13
2017-10-07T00:29:10.781Z,3.97
2017-10-07T00:31:39.015Z,4.27
2017-10-07T00:34:06.609Z,4.77
2017-10-07T00:36:34.836Z,4.70
2017-10-07T00:39:02.336Z,5.50
2017-10-07T00:41:29.794Z,4.10
2017-10-07T00:43:58.018Z,3.83
2017-10-07T00:46:25.520Z,4.50
2017-10-07T00:48:53.165Z,3.53
2017-10-07T00:51:20.645Z,3.87
2017-10-07T00:53:48.889Z,4.10
2017-10-07T00:56:16.372Z,3.80
2017-10-07T00:58:43.847Z,3.70
2017-10-07T01:01:12.189Z,3.77
2017-10-07T01:03:39.644Z,4.20
2017-10-07T01:06:07.163Z,3.70
2017-10-07T01:08:34.969Z,4.20
2017-10-07T01:11:02.437Z,4.00
2017-10-07T01:13:29.897Z,3.73
2017-10-07T01:15:58.149Z,4.00
2017-10-07T01:18:25.629Z,3.73
2017-10-07T01:20:54.671Z,3.80
2017-10-07T01:23:22.144Z,3.30
2017-10-07T01:25:49.613Z,3.23
2017-10-07T01:28:17.078Z,3.30
2017-10-07T01:30:44.547Z,4.27
2017-10-07T01:33:11.996Z,4.03
2017-10-07T01:35:39.477Z,4.50
2017-10-07T01:38:07.942Z,4.20
2017-10-07T01:40:36.925Z,3.43
2017-10-07T01:43:04.393Z,3.43
2017-10-07T01:45:31.878Z,4.00
2017-10-07T01:48:00.114Z,4.73
2017-10-07T01:50:27.573Z,5.27
2017-10-07T01:52:55.038Z,4.20
2017-10-07T01:55:23.232Z,3.50
2017-10-07T01:57:51.469Z,4.40
2017-10-07T02:00:19.138Z,4.40
2017-10-07T02:02:46.632Z,3.80
2017-10-07T02:05:14.084Z,3.60
2017-10-07T02:07:41.567Z,4.07
2017-10-07T02:10:09.132Z,4.20
2017-10-07T02:12:36.606Z,4.20
2017-10-07T02:15:04.344Z,4.60
2017-10-07T02:17:31.813Z,3.73
2017-10-07T02:19:59.372Z,4.23
2017-10-07T02:22:26.847Z,4.40
2017-10-07T02:24:54.304Z,3.60
2017-10-07T02:27:21.789Z,4.00
2017-10-07T02:29:49.257Z,3.33
2017-10-07T02:32:17.495Z,4.20
2017-10-07T02:34:44.974Z,3.87
2017-10-07T02:37:12.422Z,3.50
2017-10-07T02:39:39.900Z,3.83
2017-10-07T02:42:08.133Z,5.20
2017-10-07T02:44:35.640Z,3.77
2017-10-07T02:47:03.271Z,2.80
2017-10-07T02:49:30.746Z,3.73
2017-10-07T02:51:58.982Z,3.77
2017-10-07T02:54:26.452Z,3.10
2017-10-07T02:56:53.927Z,3.93
2017-10-07T02:59:22.161Z,3.10
2017-10-07T03:01:49.719Z,4.23
2017-10-07T03:04:17.194Z,3.43
2017-10-07T03:06:44.866Z,4.13
2017-10-07T03:09:12.319Z,3.80
2017-10-07T03:11:39.853Z,3.93
2017-10-07T03:14:07.316Z,3.83
2017-10-07T03:16:34.775Z,3.93
2017-10-07T03:19:02.276Z,3.73
2017-10-07T03:21:30.542Z,3.93
2017-10-07T03:23:58.024Z,4.23
2017-10-07T03:26:25.565Z,4.30
2017-10-07T03:28:53.805Z,4.00
2017-10-07T03:31:21.281Z,4.67
2017-10-07T03:33:48.757Z,3.83
2017-10-07T03:36:17.006Z,3.40
2017-10-07T03:38:44.476Z,4.10
2017-10-07T03:41:12.750Z,4.30
2017-10-07T03:43:40.216Z,3.53
2017-10-07T03:46:07.778Z,4.47
2017-10-07T03:48:36.146Z,3.33
2017-10-07T03:51:04.384Z,3.57
2017-10-07T03:53:31.851Z,3.70
2017-10-07T03:55:59.328Z,4.60
2017-10-07T03:58:26.794Z,4.03
2017-10-07T04:00:55.081Z,3.73
2017-10-07T04:03:23.325Z,5.13
2017-10-07T04:05:50.792Z,3.70
2017-10-07T04:08:18.266Z,3.13
2017-10-07T04:10:46.510Z,3.73
2017-10-07T04:13:14.001Z,3.13
2017-10-07T04:15:42.238Z,3.50
2017-10-07T04:18:09.696Z,3.03
2017-10-07T04:20:37.179Z,4.70
2017-10-07T04:23:05.413Z,3.40
2017-10-07T04:25:32.881Z,3.77
2017-10-07T04:28:00.338Z,3.00
2017-10-07T04:30:27.815Z,4.00
2017-10-07T04:32:56.782Z,3.40
2017-10-07T04:35:24.282Z,3.77
2017-10-07T04:37:52.504Z,3.63
2017-10-07T04:40:19.960Z,3.40
2017-10-07T04:42:47.424Z,3.10
2017-10-07T04:45:14.895Z,3.13
2017-10-07T04:47:42.367Z,4.60
2017-10-07T04:50:10.016Z,2.70
2017-10-07T04:52:37.477Z,3.20
2017-10-07T04:55:04.928Z,2.90
2017-10-07T04:57:32.398Z,3.07
2017-10-07T04:59:59.867Z,2.80
2017-10-07T05:02:28.112Z,3.27
2017-10-07T05:04:55.579Z,3.70
2017-10-07T05:07:23.041Z,3.17
2017-10-07T05:09:50.530Z,2.83
2017-10-07T05:12:17.986Z,2.73
2017-10-07T05:14:45.465Z,2.90
2017-10-07T05:17:12.932Z,3.40
2017-10-07T05:19:40.420Z,2.60
2017-10-07T05:22:07.879Z,3.00
2017-10-07T05:24:35.336Z,2.87
2017-10-07T05:27:02.927Z,3.50
2017-10-07T05:29:31.149Z,3.17
2017-10-07T05:31:58.617Z,2.37
2017-10-07T05:34:26.074Z,2.30
2017-10-07T05:36:53.563Z,2.80
2017-10-07T05:39:21.782Z,2.57
2017-10-07T05:41:49.265Z,2.53
2017-10-07T05:44:16.725Z,3.83
2017-10-07T05:46:44.189Z,2.90
2017-10-07T05:49:11.698Z,2.80
2017-10-07T05:51:39.162Z,2.70
2017-10-07T05:54:06.656Z,2.70
2017-10-07T05:56:34.417Z,3.27
2017-10-07T05:59:01.902Z,2.47
2017-10-07T06:01:30.125Z,2.73
2017-10-07T06:03:57.606Z,3.77
2017-10-07T06:06:25.099Z,3.60
2017-10-07T06:08:53.341Z,3.20
2017-10-07T06:11:20.854Z,2.80
2017-10-07T06:13:48.327Z,2.80
2017-10-07T06:16:15.788Z,2.80
2017-10-07T06:18:43.385Z,2.80
2017-10-07T06:21:10.852Z,3.23
2017-10-07T06:23:39.092Z,2.50
2017-10-07T06:26:06.551Z,2.87
2017-10-07T06:28:34.025Z,3.57
2017-10-07T06:31:01.573Z,2.97
2017-10-07T06:33:29.104Z,3.20
2017-10-07T06:35:56.569Z,3.27
2017-10-07T06:38:24.059Z,2.80
2017-10-07T06:40:51.523Z,3.07
2017-10-07T06:43:19.746Z,3.40
2017-10-07T06:45:47.224Z,2.87
2017-10-07T06:48:14.685Z,2.40
2017-10-07T06:50:42.163Z,3.10
2017-10-07T06:53:10.388Z,2.90
2017-10-07T06:55:38.061Z,2.63
2017-10-07T06:58:05.597Z,2.97
2017-10-07T07:00:33.080Z,2.90
2017-10-07T07:03:00.536Z,2.80
2017-10-07T07:05:28.007Z,2.73
2017-10-07T07:07:55.656Z,2.90
2017-10-07T07:10:23.139Z,3.07
2017-10-07T07:12:50.601Z,2.40
2017-10-07T07:15:19.559Z,2.67
2017-10-07T07:17:47.028Z,2.87
2017-10-07T07:20:14.501Z,2.57
2017-10-07T07:22:42.759Z,3.17
2017-10-07T07:25:10.229Z,2.47
2017-10-07T07:27:37.868Z,2.57
2017-10-07T07:30:05.440Z,2.47
2017-10-07T07:32:32.909Z,3.47
2017-10-07T07:35:00.370Z,2.90
2017-10-07T07:37:28.606Z,2.57
2017-10-07T07:39:56.062Z,2.37
2017-10-07T07:42:23.531Z,2.10
2017-10-07T07:44:51.016Z,3.37
2017-10-07T07:47:19.247Z,2.07
2017-10-07T07:49:46.708Z,2.50
2017-10-07T07:52:14.187Z,2.93
2017-10-07T07:54:43.161Z,3.03
2017-10-07T07:57:10.634Z,2.90
2017-10-07T07:59:38.104Z,3.40
2017-10-07T08:02:05.593Z,2.63
2017-10-07T08:04:33.058Z,2.70
2017-10-07T08:07:00.521Z,2.67
2017-10-07T08:09:27.981Z,2.60
2017-10-07T08:11:55.442Z,2.63
2017-10-07T08:14:22.945Z,2.40
2017-10-07T08:16:50.426Z,2.73
2017-10-07T08:19:18.644Z,4.23
2017-10-07T08:21:46.165Z,2.87
2017-10-07T08:24:13.631Z,2.73
2017-10-07T08:26:41.157Z,2.90
2017-10-07T08:29:09.400Z,2.87
2017-10-07T08:31:36.916Z,2.70
2017-10-07T08:34:04.500Z,3.00
2017-10-07T08:36:31.968Z,2.33
2017-10-07T08:38:59.463Z,2.80
2017-10-07T08:41:27.701Z,2.50
2017-10-07T08:43:55.186Z,2.73
2017-10-07T08:46:22.652Z,2.57
2017-10-07T08:48:50.896Z,2.27
2017-10-07T08:51:18.366Z,2.53
2017-10-07T08:53:45.853Z,3.07
2017-10-07T08:56:13.413Z,2.93
2017-10-07T08:58:41.801Z,3.20
2017-10-07T09:01:09.284Z,2.93
2017-10-07T09:03:36.841Z,2.93
2017-10-07T09:06:04.312Z,2.60
2017-10-07T09:08:31.804Z,2.60
2017-10-07T09:11:00.108Z,2.10
2017-10-07T09:13:27.589Z,2.40
2017-10-07T09:15:55.059Z,2.60
2017-10-07T09:18:22.525Z,2.63
2017-10-07T09:20:50.013Z,2.60
2017-10-07T09:23:18.244Z,2.87
2017-10-07T09:25:46.361Z,2.60
2017-10-07T09:28:14.629Z,2.30
2017-10-07T09:30:42.089Z,2.60
2017-10-07T09:33:10.320Z,2.47
2017-10-07T09:35:37.798Z,2.10
2017-10-07T09:38:05.285Z,2.57
2017-10-07T09:40:33.517Z,2.33
2017-10-07T09:43:00.993Z,2.63
2017-10-07T09:45:28.464Z,2.40
2017-10-07T09:47:56.668Z,2.70
2017-10-07T09:50:24.285Z,2.93
2017-10-07T09:52:51.758Z,2.70
2017-10-07T09:55:19.980Z,2.50
2017-10-07T09:57:47.461Z,2.50
2017-10-07T10:00:15.093Z,2.93
2017-10-07T10:02:42.572Z,3.10
2017-10-07T10:05:10.142Z,2.23
2017-10-07T10:07:37.755Z,3.00
2017-10-07T10:10:05.201Z,2.67
2017-10-07T10:12:32.692Z,3.50
2017-10-07T10:15:00.190Z,2.40
2017-10-07T10:17:27.652Z,2.50
2017-10-07T10:19:55.152Z,2.60
2017-10-07T10:22:22.607Z,2.80
2017-10-07T10:24:50.089Z,3.00
2017-10-07T10:27:17.745Z,2.20
2017-10-07T10:29:45.225Z,2.67
2017-10-07T10:32:14.473Z,2.40
2017-10-07T10:34:41.953Z,2.73
2017-10-07T10:37:09.417Z,2.53
2017-10-07T10:39:36.872Z,2.43
2017-10-07T10:42:04.349Z,3.00
2017-10-07T10:44:31.932Z,2.27
2017-10-07T10:47:00.169Z,2.53
2017-10-07T10:49:27.629Z,2.70
2017-10-07T10:51:55.168Z,2.40
2017-10-07T10:54:22.628Z,2.00
2017-10-07T10:56:50.100Z,2.60
2017-10-07T10:59:17.622Z,2.50
2017-10-07T11:01:45.091Z,2.73
2017-10-07T11:04:12.629Z,2.60
2017-10-07T11:06:40.089Z,3.00
2017-10-07T11:09:07.564Z,2.50
2017-10-07T11:11:35.036Z,2.30
2017-10-07T11:14:02.504Z,3.10
2017-10-07T11:16:29.965Z,2.93
2017-10-07T11:18:57.422Z,2.37
2017-10-07T11:21:24.924Z,2.77
2017-10-07T11:23:53.237Z,3.17
2017-10-07T11:26:20.733Z,3.00
2017-10-07T11:28:48.189Z,2.40
2017-10-07T11:31:15.648Z,2.80
2017-10-07T11:33:43.884Z,3.40
2017-10-07T11:36:11.361Z,2.93
2017-10-07T11:38:38.841Z,2.70
2017-10-07T11:41:07.066Z,2.80
2017-10-07T11:43:34.533Z,2.30
2017-10-07T11:46:01.992Z,3.07
2017-10-07T11:48:29.476Z,2.60
2017-10-07T11:50:56.941Z,2.53
2017-10-07T11:53:25.165Z,2.30
2017-10-07T11:55:52.694Z,2.60
2017-10-07T11:58:20.932Z,2.97
2017-10-07T12:00:48.384Z,2.83
2017-10-07T12:03:15.899Z,2.90
2017-10-07T12:05:43.361Z,3.13
2017-10-07T12:08:12.743Z,2.80
2017-10-07T12:10:38.329Z,3.00
2017-10-07T12:13:05.796Z,3.27
2017-10-07T12:15:34.085Z,2.70
2017-10-07T12:18:02.309Z,3.60
2017-10-07T12:20:29.794Z,3.23
2017-10-07T12:22:57.256Z,2.93
2017-10-07T12:25:25.445Z,2.93
2017-10-07T12:27:52.925Z,2.90
2017-10-07T12:30:20.388Z,3.23
2017-10-07T12:32:47.886Z,2.90
2017-10-07T12:35:15.349Z,2.60
2017-10-07T12:37:42.823Z,2.80
2017-10-07T12:40:11.058Z,2.50
2017-10-07T12:42:38.525Z,2.80
2017-10-07T12:45:05.989Z,2.30
2017-10-07T12:47:33.451Z,2.70
2017-10-07T12:50:01.777Z,3.00
2017-10-07T12:52:29.237Z,3.00
2017-10-07T12:54:56.697Z,2.60
2017-10-07T12:57:24.153Z,3.40
2017-10-07T12:59:51.621Z,2.43
2017-10-07T13:02:19.080Z,3.40
2017-10-07T13:04:46.557Z,2.93
2017-10-07T13:07:14.031Z,2.90
2017-10-07T13:09:42.271Z,2.60
2017-10-07T13:12:09.745Z,2.90
2017-10-07T13:14:37.321Z,2.80
2017-10-07T13:17:04.788Z,2.67
2017-10-07T13:19:33.012Z,3.50
2017-10-07T13:22:00.505Z,2.43
2017-10-07T13:24:27.961Z,2.37
2017-10-07T13:26:55.442Z,2.80
2017-10-07T13:29:23.669Z,2.43
2017-10-07T13:31:51.152Z,2.47
2017-10-07T13:34:18.637Z,2.60
2017-10-07T13:36:46.089Z,2.90
2017-10-07T13:39:13.558Z,2.43
2017-10-07T13:41:41.162Z,2.47
2017-10-07T13:44:08.640Z,2.90
2017-10-07T13:46:36.107Z,2.90
2017-10-07T13:49:04.343Z,2.83
2017-10-07T13:51:31.824Z,3.40
2017-10-07T13:53:59.447Z,2.63
2017-10-07T13:56:26.909Z,3.13
2017-10-07T13:58:54.380Z,3.00
2017-10-07T14:01:21.838Z,2.47
2017-10-07T14:03:50.144Z,2.97
2017-10-07T14:06:18.380Z,3.00
2017-10-07T14:08:45.865Z,2.80
2017-10-07T14:11:13.324Z,3.27
2017-10-07T14:13:41.556Z,3.37
2017-10-07T14:16:09.030Z,3.77
2017-10-07T14:18:36.616Z,3.50
2017-10-07T14:21:04.846Z,3.73
2017-10-07T14:23:32.311Z,3.70
2017-10-07T14:25:59.772Z,4.00
2017-10-07T14:28:27.245Z,3.40
2017-10-07T14:30:54.726Z,4.33
2017-10-07T14:33:22.958Z,3.63
2017-10-07T14:35:50.445Z,3.77
2017-10-07T14:38:17.900Z,3.50
2017-10-07T14:40:45.351Z,3.03
2017-10-07T14:43:12.820Z,3.70
2017-10-07T14:45:41.062Z,3.40
2017-10-07T14:48:08.533Z,3.20
2017-10-07T14:50:35.996Z,3.23
2017-10-07T14:53:03.469Z,3.40
2017-10-07T14:55:31.688Z,2.90
2017-10-07T14:57:59.159Z,3.73
2017-10-07T15:00:26.640Z,3.27
2017-10-07T15:02:54.324Z,3.20
2017-10-07T15:05:21.789Z,3.40
2017-10-07T15:07:50.030Z,3.53
2017-10-07T15:10:17.561Z,3.60
2017-10-07T15:12:45.745Z,3.90
2017-10-07T15:15:13.213Z,3.10
2017-10-07T15:17:40.669Z,3.13
2017-10-07T15:20:08.149Z,3.03
2017-10-07T15:22:35.663Z,3.90
2017-10-07T15:25:03.124Z,3.17
2017-10-07T15:27:30.591Z,3.00
2017-10-07T15:29:58.076Z,3.50
2017-10-07T15:32:25.535Z,4.10
2017-10-07T15:34:53.789Z,3.07
2017-10-07T15:37:21.269Z,3.67
2017-10-07T15:39:49.513Z,3.07
2017-10-07T15:42:16.994Z,3.43
2017-10-07T15:44:44.525Z,3.33
2017-10-07T15:47:12.138Z,3.50
2017-10-07T15:49:40.365Z,3.97
2017-10-07T15:52:07.826Z,2.80
2017-10-07T15:54:35.377Z,3.03
2017-10-07T15:57:02.836Z,3.00
2017-10-07T15:59:30.320Z,2.60
2017-10-07T16:01:58.541Z,2.80
2017-10-07T16:06:59.820Z,3.13
2017-10-07T16:09:27.299Z,2.53
2017-10-07T16:11:54.969Z,2.80
2017-10-07T16:14:23.215Z,2.60
2017-10-07T16:16:50.652Z,2.90
2017-10-07T16:19:18.129Z,2.47
2017-10-07T16:21:45.585Z,2.53
2017-10-07T16:24:13.065Z,2.87
2017-10-07T16:26:40.538Z,2.03
2017-10-07T16:29:08.768Z,2.70
2017-10-07T16:31:36.323Z,2.67
2017-10-07T16:34:03.777Z,2.63
2017-10-07T16:36:31.275Z,2.77
2017-10-07T16:38:58.729Z,2.67
2017-10-07T16:41:26.185Z,2.50
2017-10-07T16:43:53.659Z,2.90
2017-10-07T16:46:21.950Z,2.33
2017-10-07T16:48:49.424Z,2.40
2017-10-07T16:51:16.893Z,2.67
2017-10-07T16:53:44.360Z,3.37
2017-10-07T16:56:11.820Z,3.20
2017-10-07T16:58:39.289Z,3.20
2017-10-07T17:01:06.779Z,2.53
2017-10-07T17:03:35.015Z,2.90
2017-10-07T17:06:02.500Z,3.10
2017-10-07T17:08:30.827Z,3.20
2017-10-07T17:10:58.529Z,3.27
2017-10-07T17:13:25.992Z,2.63
2017-10-07T17:15:54.241Z,3.23
2017-10-07T17:18:21.727Z,3.40
2017-10-07T17:20:49.174Z,3.40
2017-10-07T17:23:16.660Z,2.57
2017-10-07T17:25:44.121Z,2.67
2017-10-07T17:28:11.750Z,2.87
2017-10-07T17:30:39.214Z,2.67
2017-10-07T17:33:06.686Z,2.70
2017-10-07T17:35:34.913Z,2.70
2017-10-07T17:38:02.391Z,2.90
2017-10-07T17:40:29.849Z,3.40
2017-10-07T17:42:57.356Z,3.10
2017-10-07T17:45:24.950Z,3.00
2017-10-07T17:47:52.426Z,2.70
2017-10-07T17:50:19.895Z,3.27
2017-10-07T17:52:48.123Z,2.53
2017-10-07T17:55:15.604Z,3.20
2017-10-07T17:57:43.074Z,2.60
2017-10-07T18:00:10.529Z,3.13
2017-10-07T18:02:38.009Z,2.50
2017-10-07T18:05:06.441Z,3.13
2017-10-07T18:07:33.922Z,3.73
2017-10-07T18:10:01.380Z,3.30
2017-10-07T18:12:28.860Z,2.70
2017-10-07T18:14:56.321Z,2.77
2017-10-07T18:17:23.802Z,2.87
2017-10-07T18:19:51.261Z,2.97
2017-10-07T18:22:18.725Z,3.40
2017-10-07T18:24:46.192Z,3.13
2017-10-07T18:27:13.657Z,3.30
2017-10-07T18:29:41.145Z,3.07
2017-10-07T18:32:08.609Z,3.20
2017-10-07T18:34:36.857Z,3.67
2017-10-07T18:37:04.315Z,3.90
2017-10-07T18:39:31.789Z,4.00
2017-10-07T18:42:00.123Z,3.73
2017-10-07T18:44:27.576Z,3.60
2017-10-07T18:46:55.061Z,3.70
2017-10-07T18:49:22.597Z,3.93
2017-10-07T18:51:50.082Z,3.90
2017-10-07T18:54:17.740Z,3.70
2017-10-07T18:56:45.210Z,4.20
2017-10-07T18:59:12.682Z,3.70
2017-10-07T19:01:40.928Z,4.00
2017-10-07T19:04:09.921Z,5.30
2017-10-07T19:06:37.437Z,3.73
2017-10-07T19:09:04.901Z,4.03
2017-10-07T19:11:32.353Z,3.90
2017-10-07T19:14:00.580Z,3.80
2017-10-07T19:16:28.637Z,3.33
2017-10-07T19:18:56.117Z,3.20
2017-10-07T19:21:24.341Z,3.43
2017-10-07T19:23:51.828Z,3.50
2017-10-07T19:26:19.301Z,3.70
2017-10-07T19:28:47.532Z,3.67
2017-10-07T19:31:15.012Z,3.20
2017-10-07T19:33:42.468Z,3.30
2017-10-07T19:36:10.716Z,3.70
2017-10-07T19:38:38.195Z,2.67
2017-10-07T19:41:05.802Z,3.40
2017-10-07T19:43:33.267Z,3.90
2017-10-07T19:46:00.733Z,3.03
2017-10-07T19:48:28.345Z,3.50
2017-10-07T19:50:55.895Z,3.00
2017-10-07T19:53:23.377Z,3.80
2017-10-07T19:55:51.598Z,2.80
2017-10-07T19:58:19.061Z,3.33
2017-10-07T20:00:46.546Z,3.30
2017-10-07T20:03:14.033Z,3.13
2017-10-07T20:05:41.511Z,3.20
2017-10-07T20:08:09.110Z,3.00
2017-10-07T20:10:36.572Z,4.60
2017-10-07T20:13:04.051Z,3.10
2017-10-07T20:15:32.288Z,3.17
2017-10-07T20:17:59.754Z,3.20
2017-10-07T20:20:27.212Z,3.60
2017-10-07T20:22:54.668Z,3.50
2017-10-07T20:25:22.152Z,3.70
2017-10-07T20:27:50.400Z,3.50
2017-10-07T20:30:17.864Z,2.97
2017-10-07T20:32:45.336Z,3.57
2017-10-07T20:35:13.665Z,3.53
2017-10-07T20:37:41.148Z,3.30
2017-10-07T20:40:08.606Z,3.20
2017-10-07T20:42:36.085Z,3.70
2017-10-07T20:45:04.330Z,3.67
2017-10-07T20:47:31.801Z,4.13
2017-10-07T20:49:59.269Z,4.47
2017-10-07T20:52:27.501Z,3.63
2017-10-07T20:54:54.996Z,3.90
2017-10-07T20:57:23.265Z,3.80
2017-10-07T20:59:50.741Z,4.17
2017-10-07T21:02:18.977Z,3.90
2017-10-07T21:04:46.457Z,3.60
2017-10-07T21:07:13.909Z,3.13
2017-10-07T21:09:41.387Z,4.10
2017-10-07T21:12:09.617Z,3.33
2017-10-07T21:14:37.085Z,3.67
2017-10-07T21:17:04.565Z,3.77
2017-10-07T21:19:32.817Z,3.43
2017-10-07T21:22:00.287Z,3.40
2017-10-07T21:24:27.851Z,3.30
2017-10-07T21:26:56.118Z,3.50
2017-10-07T21:29:23.595Z,3.20
2017-10-07T21:31:51.834Z,3.33
2017-10-07T21:34:19.291Z,3.57
2017-10-07T21:36:46.769Z,3.53
2017-10-07T21:39:14.230Z,3.90
2017-10-07T21:41:41.701Z,3.87
2017-10-07T21:44:09.928Z,3.63
2017-10-07T21:46:37.418Z,4.20
2017-10-07T21:49:04.944Z,3.60
2017-10-07T21:51:32.435Z,4.07
2017-10-07T21:53:59.905Z,3.70
2017-10-07T21:56:28.119Z,4.07
2017-10-07T21:58:55.593Z,4.00
2017-10-07T22:01:23.060Z,3.77
2017-10-07T22:03:50.558Z,4.27
2017-10-07T22:06:18.794Z,4.10
2017-10-07T22:08:46.325Z,4.20
2017-10-07T22:11:13.780Z,4.50
2017-10-07T22:13:41.341Z,5.00
2017-10-07T22:16:08.802Z,4.97
2017-10-07T22:18:36.268Z,5.23
2017-10-07T22:21:03.746Z,4.90
2017-10-07T22:23:31.418Z,5.10
2017-10-07T22:25:58.860Z,5.10
2017-10-07T22:28:26.329Z,4.60
2017-10-07T22:30:54.567Z,4.83
2017-10-07T22:33:22.034Z,4.97
2017-10-07T22:35:49.510Z,5.77
2017-10-07T22:38:18.509Z,4.97
2017-10-07T22:40:45.968Z,5.30
2017-10-07T22:43:14.201Z,5.40
2017-10-07T22:45:41.810Z,5.00
2017-10-07T22:48:10.781Z,5.33
2017-10-07T22:50:38.268Z,5.57
2017-10-07T22:53:06.515Z,4.53
2017-10-07T22:55:33.972Z,5.73
2017-10-07T22:58:01.429Z,5.40
2017-10-07T23:00:28.908Z,4.70
2017-10-07T23:02:57.152Z,4.87
2017-10-07T23:05:24.657Z,5.30
2017-10-07T23:07:52.113Z,5.07
2017-10-07T23:10:19.576Z,5.03
2017-10-07T23:12:47.051Z,5.10
2017-10-07T23:15:14.514Z,5.50
2017-10-07T23:17:41.981Z,5.30
2017-10-07T23:20:09.453Z,5.07
2017-10-07T23:22:36.937Z,5.40
2017-10-07T23:25:04.402Z,5.70
2017-10-07T23:27:32.650Z,6.53
2017-10-07T23:30:00.113Z,5.87
2017-10-07T23:32:27.581Z,5.97
2017-10-07T23:34:55.840Z,6.57
2017-10-07T23:37:23.293Z,6.00
2017-10-07T23:39:50.758Z,6.70
2017-10-07T23:42:19.736Z,6.80
2017-10-07T23:44:47.192Z,7.07
2017-10-07T23:47:14.673Z,7.03
2017-10-07T23:49:42.925Z,7.67
2017-10-07T23:52:10.396Z,7.53
2017-10-07T23:54:37.878Z,7.77
2017-10-07T23:57:06.242Z,8.43
2017-10-07T23:59:34.558Z,9.07
